Time;durP1;ratioP1;P1;durP2;ratioP2;P2;SDS_P1;SDS_P2;PMS_P1;PMS_P2;Temp;Humidity;BMP_temperature;BMP_pressure;BME280_temperature;BME280_humidity;BME280_pressure;Samples;Min_cycle;Max_cycle;Signal;HPM_P1;HPM_P2
2024/02/01 00:01:16;;;;;;;10.98;6.70;;;;;;;-3.73;59.06;95911.91;4989719;28;20057;-70
2024/02/01 00:03:41;;;;;;;13.82;7.35;;;;;;;-3.69;58.88;95906.81;4978635;28;20492;-71
2024/02/01 00:06:07;;;;;;;11.35;6.88;;;;;;;-3.82;58.53;95895.06;4994913;28;20060;-71
2024/02/01 00:08:32;;;;;;;13.77;7.75;;;;;;;-3.75;58.23;95911.13;4991366;28;20221;-71
2024/02/01 00:10:58;;;;;;;10.27;6.88;;;;;;;-3.64;58.39;95911.84;5028330;28;20033;-71
2024/02/01 00:13:23;;;;;;;13.43;7.85;;;;;;;-3.84;57.55;95904.44;5010720;28;20045;-70
2024/02/01 00:15:49;;;;;;;12.57;7.32;;;;;;;-4.02;58.60;95859.72;5020697;28;20143;-71
2024/02/01 00:18:14;;;;;;;13.40;7.57;;;;;;;-3.85;59.33;95905.28;5020408;28;20030;-70
2024/02/01 00:20:40;;;;;;;8.35;5.53;;;;;;;-3.79;59.24;95905.22;5026867;28;20042;-71
2024/02/01 00:23:05;;;;;;;7.85;5.50;;;;;;;-3.72;59.18;95904.31;5028472;28;20033;-71
2024/02/01 00:25:30;;;;;;;10.52;5.82;;;;;;;-3.78;59.01;95895.91;5013945;28;20026;-71
2024/02/01 00:27:56;;;;;;;9.77;5.78;;;;;;;-4.69;58.98;95762.22;5013557;28;20045;-71
2024/02/01 00:30:21;;;;;;;9.60;5.38;;;;;;;-4.18;59.97;95884.44;5017637;28;20116;-71
2024/02/01 00:32:47;;;;;;;9.02;4.85;;;;;;;-4.12;59.00;95884.38;5016666;28;20029;-71
2024/02/01 00:35:12;;;;;;;9.40;5.32;;;;;;;-4.18;59.81;95881.03;5034114;28;20518;-71
2024/02/01 00:37:38;;;;;;;8.65;5.15;;;;;;;-4.18;59.27;95886.97;5015608;28;20106;-71
2024/02/01 00:40:04;;;;;;;8.68;5.55;;;;;;;-4.18;59.36;95892.03;5031848;28;20049;-71
2024/02/01 00:42:29;;;;;;;10.75;6.50;;;;;;;-4.15;59.27;95881.88;4997315;28;20044;-71
2024/02/01 00:44:55;;;;;;;11.25;6.72;;;;;;;-4.21;58.46;95869.19;5015302;28;20025;-70
2024/02/01 00:47:20;;;;;;;10.90;5.65;;;;;;;-4.36;57.82;95866.81;5010571;28;20481;-71
2024/02/01 00:49:45;;;;;;;10.18;6.40;;;;;;;-4.12;57.31;95884.38;5022545;28;20036;-71
2024/02/01 00:52:11;;;;;;;11.73;7.30;;;;;;;-4.07;58.13;95892.78;5034306;28;20026;-71
2024/02/01 00:54:37;;;;;;;12.45;7.28;;;;;;;-4.13;58.85;95887.75;4996462;28;20025;-71
2024/02/01 00:57:03;;;;;;;14.32;7.80;;;;;;;-4.15;58.61;95884.41;5011071;28;20037;-71
2024/02/01 00:59:28;;;;;;;14.20;5.88;;;;;;;-4.02;59.12;95884.28;5001114;28;20034;-71
2024/02/01 01:01:54;;;;;;;9.52;6.18;;;;;;;-4.03;59.88;95887.69;5014914;28;20105;-71
2024/02/01 01:04:19;;;;;;;10.27;6.65;;;;;;;-4.03;60.20;95885.97;5007205;28;20022;-71
2024/02/01 01:06:44;;;;;;;10.68;6.40;;;;;;;-3.86;60.68;95895.97;5032831;28;20491;-71
2024/02/01 01:09:10;;;;;;;11.73;6.90;;;;;;;-3.84;60.78;95887.50;5028466;28;20059;-71
2024/02/01 01:11:35;;;;;;;10.65;6.57;;;;;;;-4.24;60.46;95837.94;5015826;28;20026;-71
2024/02/01 01:14:01;;;;;;;9.07;5.60;;;;;;;-3.90;60.70;95892.63;4999051;28;20022;-71
2024/02/01 01:16:30;;;;;;;8.15;5.10;;;;;;;-3.94;59.97;95885.88;5014054;28;20506;-71
2024/02/01 01:18:55;;;;;;;7.50;4.95;;;;;;;-3.95;60.94;95889.28;4996470;28;20030;-71
2024/02/01 01:21:21;;;;;;;6.32;4.32;;;;;;;-4.03;61.35;95878.38;4996510;28;20041;-71
2024/02/01 01:23:46;;;;;;;8.30;4.38;;;;;;;-4.17;60.84;95867.50;5007699;28;20029;-71
2024/02/01 01:26:12;;;;;;;9.95;4.82;;;;;;;-4.19;61.06;95875.13;4996740;28;20511;-71
2024/02/01 01:28:37;;;;;;;12.52;5.53;;;;;;;-4.32;60.60;95863.38;4993028;28;20040;-71
2024/02/01 01:31:02;;;;;;;9.48;5.80;;;;;;;-4.57;61.72;95863.59;4988230;28;20091;-71
2024/02/01 01:33:28;;;;;;;10.80;6.13;;;;;;;-4.42;60.69;95849.09;5032347;28;20026;-71
2024/02/01 01:35:53;;;;;;;9.00;5.40;;;;;;;-4.45;60.50;95860.13;5015176;28;20440;-71
2024/02/01 01:38:19;;;;;;;8.75;5.43;;;;;;;-4.49;60.36;95866.06;5016380;28;20042;-71
2024/02/01 01:40:44;;;;;;;8.98;4.97;;;;;;;-4.46;59.23;95849.97;5014959;28;20030;-71
2024/02/01 01:43:09;;;;;;;10.73;6.63;;;;;;;-4.43;58.94;95834.72;5019195;28;20072;-71
2024/02/01 01:45:35;;;;;;;9.98;5.97;;;;;;;-4.32;59.01;95849.03;5011539;28;20037;-71
2024/02/01 01:48:00;;;;;;;11.15;6.40;;;;;;;-4.40;59.23;95833.03;5015255;28;20029;-71
2024/02/01 01:50:26;;;;;;;11.73;6.75;;;;;;;-4.36;59.82;95847.34;4992413;28;20037;-71
2024/02/01 01:52:51;;;;;;;9.75;6.47;;;;;;;-4.50;60.36;95839.84;5014798;28;20029;-71
2024/02/01 01:55:16;;;;;;;7.65;5.53;;;;;;;-4.46;60.72;95834.75;4982235;28;20034;-71
2024/02/01 01:57:42;;;;;;;10.93;6.45;;;;;;;-4.58;61.33;95831.47;4996762;28;20056;-71
2024/02/01 02:00:08;;;;;;;9.73;6.28;;;;;;;-4.37;61.99;95840.59;4995716;28;20034;-71
2024/02/01 02:02:34;;;;;;;10.93;7.07;;;;;;;-4.46;62.23;95835.59;5007187;28;20553;-71
2024/02/01 02:04:59;;;;;;;10.77;7.05;;;;;;;-4.37;61.78;95839.75;4998604;28;20038;-71
2024/02/01 02:07:24;;;;;;;12.02;7.18;;;;;;;-4.36;61.82;95842.28;4997115;28;20040;-71
2024/02/01 02:09:50;;;;;;;12.52;6.97;;;;;;;-4.31;60.81;95832.09;5031223;28;20120;-71
2024/02/01 02:12:15;;;;;;;12.52;7.88;;;;;;;-4.57;60.60;95827.22;5008704;28;20033;-71
2024/02/01 02:14:41;;;;;;;9.43;6.20;;;;;;;-4.31;60.42;95834.63;4995663;28;20033;-71
2024/02/01 02:17:06;;;;;;;9.85;6.13;;;;;;;-4.34;60.95;95830.41;5021794;28;20056;-71
2024/02/01 02:19:32;;;;;;;10.32;6.40;;;;;;;-4.31;60.96;95820.25;5014312;28;20041;-71
2024/02/01 02:21:57;;;;;;;7.88;5.53;;;;;;;-4.23;61.43;95826.94;5005990;28;20075;-71
2024/02/01 02:24:22;;;;;;;8.05;4.63;;;;;;;-4.34;61.43;95819.44;4998485;28;20087;-71
2024/02/01 02:26:48;;;;;;;6.78;4.45;;;;;;;-4.40;61.84;95809.31;5010473;28;20034;-71
2024/02/01 02:29:16;;;;;;;6.68;4.30;;;;;;;-4.38;62.09;95815.22;4980970;28;20038;-71
2024/02/01 02:31:42;;;;;;;6.20;4.00;;;;;;;-4.22;62.21;95819.31;4998532;28;20029;-71
2024/02/01 02:34:08;;;;;;;5.65;4.20;;;;;;;-4.24;60.84;95821.00;5014160;28;20029;-71
2024/02/01 02:36:33;;;;;;;5.32;3.70;;;;;;;-4.70;60.92;95831.56;5030634;28;20099;-72
2024/02/01 02:39:00;;;;;;;7.65;4.30;;;;;;;-4.76;61.88;95829.06;5029795;28;20415;-71
2024/02/01 02:41:25;;;;;;;6.07;3.50;;;;;;;-4.60;60.67;95832.31;4989219;28;20096;-71
2024/02/01 02:43:51;;;;;;;7.55;3.60;;;;;;;-5.16;60.58;95776.09;5007677;28;20582;-71
2024/02/01 02:46:16;;;;;;;5.22;3.25;;;;;;;-5.04;61.43;95791.25;5013395;28;20063;-71
2024/02/01 02:48:41;;;;;;;6.53;3.00;;;;;;;-4.83;62.09;95819.81;4992529;28;20018;-71
2024/02/01 02:51:07;;;;;;;5.35;3.47;;;;;;;-4.76;61.70;95836.69;4994701;28;20034;-71
2024/02/01 02:53:33;;;;;;;6.03;3.90;;;;;;;-4.78;62.57;95841.75;5015878;28;20022;-71
2024/02/01 02:55:58;;;;;;;7.65;4.28;;;;;;;-4.87;63.20;95839.28;5018141;28;20033;-71
2024/02/01 02:58:24;;;;;;;6.78;4.05;;;;;;;-4.79;63.67;95832.47;5021044;28;20046;-71
2024/02/01 03:00:50;;;;;;;9.02;4.85;;;;;;;-4.79;63.14;95831.59;5022242;28;20459;-71
2024/02/01 03:03:16;;;;;;;8.68;5.50;;;;;;;-5.00;62.92;95815.69;5004197;28;20042;-71
2024/02/01 03:05:41;;;;;;;10.70;6.05;;;;;;;-5.06;62.55;95817.44;4994706;28;20057;-71
2024/02/01 03:08:09;;;;;;;9.15;5.82;;;;;;;-5.04;62.28;95819.13;5030122;28;20512;-71
2024/02/01 03:10:35;;;;;;;9.77;5.72;;;;;;;-5.28;62.11;95794.75;5020661;28;20502;-71
2024/02/01 03:13:01;;;;;;;8.57;5.07;;;;;;;-5.14;62.32;95802.28;4995205;28;20526;-71
2024/02/01 03:15:29;;;;;;;7.55;4.35;;;;;;;-5.18;61.98;95806.53;5015949;28;20030;-71
2024/02/01 03:17:56;;;;;;;7.03;4.68;;;;;;;-5.30;62.89;95786.31;5011748;28;20105;-71
2024/02/01 03:20:25;;;;;;;9.43;4.95;;;;;;;-5.37;62.76;95806.66;4997942;28;20026;-71
2024/02/01 03:22:56;;;;;;;7.05;4.95;;;;;;;-5.51;63.69;95797.41;4975473;28;20029;-71
2024/02/01 03:25:34;;;;;;;5.78;4.28;;;;;;;-5.28;63.18;95812.50;4997380;28;20087;-71
2024/02/01 03:28:01;;;;;;;9.30;4.70;;;;;;;-5.33;63.45;95800.69;5013604;28;20076;-71
2024/02/01 03:30:37;;;;;;;6.43;3.60;;;;;;;-5.44;64.24;95786.41;4999814;28;20030;-71
2024/02/01 03:33:05;;;;;;;8.07;4.15;;;;;;;-5.46;64.09;95805.84;4977807;28;20033;-71
2024/02/01 03:35:31;;;;;;;5.70;3.35;;;;;;;-5.41;64.62;95786.38;4978409;28;20050;-71
2024/02/01 03:38:00;;;;;;;5.40;3.25;;;;;;;-5.38;64.73;95790.59;4993973;28;20108;-71
2024/02/01 03:40:26;;;;;;;5.95;4.28;;;;;;;-5.35;64.51;95792.25;4997212;28;20037;-71
2024/02/01 03:42:51;;;;;;;7.40;4.22;;;;;;;-5.41;64.25;95791.44;5016051;28;20034;-71
2024/02/01 03:45:17;;;;;;;7.47;4.22;;;;;;;-5.54;64.60;95789.84;5011653;28;20054;-71
2024/02/01 03:47:45;;;;;;;7.60;3.97;;;;;;;-5.65;64.72;95784.00;5017036;28;20099;-72
2024/02/01 03:50:11;;;;;;;6.18;3.83;;;;;;;-5.55;65.14;95788.13;5013775;28;20040;-71
2024/02/01 03:52:43;;;;;;;6.43;3.85;;;;;;;-5.43;65.20;95792.31;4997122;28;20041;-71
2024/02/01 03:55:16;;;;;;;6.53;4.10;;;;;;;-5.48;64.64;95784.75;5028196;28;20040;-71
2024/02/01 03:57:47;;;;;;;5.18;3.72;;;;;;;-5.44;65.56;95793.16;4989551;28;20408;-73
2024/02/01 04:00:30;;;;;;;7.80;4.00;;;;;;;-5.69;65.66;95783.13;5016143;28;20487;-71
2024/02/01 04:02:56;;;;;;;4.63;2.97;;;;;;;-5.58;65.40;95788.16;4992905;28;20144;-73
2024/02/01 04:05:25;;;;;;;5.38;3.45;;;;;;;-5.57;66.17;95779.72;4996021;28;20033;-73
2024/02/01 04:07:51;;;;;;;5.88;3.88;;;;;;;-5.59;65.86;95767.94;4990524;28;20451;-73
2024/02/01 04:10:17;;;;;;;5.95;3.42;;;;;;;-5.64;66.64;95773.84;4993443;28;20061;-73
2024/02/01 04:12:42;;;;;;;9.07;4.70;;;;;;;-5.62;65.41;95774.69;5011075;28;20485;-74
2024/02/01 04:15:08;;;;;;;5.63;3.58;;;;;;;-5.68;65.46;95761.22;4982171;28;20034;-73
2024/02/01 04:17:33;;;;;;;7.80;4.32;;;;;;;-5.72;65.33;95779.78;5012921;28;20044;-72
2024/02/01 04:19:59;;;;;;;8.98;4.30;;;;;;;-5.71;64.99;95771.34;5024560;28;20030;-72
2024/02/01 04:22:25;;;;;;;6.35;3.92;;;;;;;-5.67;65.82;95778.09;5011113;28;20252;-73
2024/02/01 04:24:50;;;;;;;8.10;4.25;;;;;;;-5.71;65.86;95772.19;5024181;28;20040;-74
2024/02/01 04:27:18;;;;;;;6.03;3.65;;;;;;;-5.74;66.10;95759.56;4996740;28;20030;-74
2024/02/01 04:29:43;;;;;;;7.05;4.13;;;;;;;-5.56;66.15;95776.34;5013314;28;20122;-73
2024/02/01 04:32:10;;;;;;;6.50;4.00;;;;;;;-5.85;66.46;95778.97;5012734;28;20088;-74
2024/02/01 04:34:38;;;;;;;6.38;4.20;;;;;;;-5.67;65.86;95788.22;5012139;28;20057;-74
2024/02/01 04:37:05;;;;;;;7.45;3.78;;;;;;;-5.75;66.18;95775.56;5013457;28;20040;-74
2024/02/01 04:39:31;;;;;;;6.68;3.92;;;;;;;-5.90;65.94;95793.38;4980608;28;20061;-74
2024/02/01 04:42:14;;;;;;;7.22;4.35;;;;;;;-5.84;66.32;95788.28;5011535;28;20419;-73
2024/02/01 04:44:40;;;;;;;9.40;4.53;;;;;;;-5.89;66.36;95765.50;5030705;28;20487;-74
2024/02/01 04:47:05;;;;;;;10.82;5.93;;;;;;;-5.72;65.48;95779.78;4980335;28;20029;-73
2024/02/01 04:49:30;;;;;;;9.88;5.03;;;;;;;-5.77;66.15;95786.56;5030490;28;20025;-74
2024/02/01 04:51:57;;;;;;;11.80;5.43;;;;;;;-5.71;66.06;95784.84;5008511;28;20053;-73
2024/02/01 04:54:22;;;;;;;9.05;4.40;;;;;;;-5.71;66.17;95786.53;5010958;28;20413;-73
2024/02/01 04:56:47;;;;;;;7.75;4.00;;;;;;;-5.64;66.11;95773.00;4998278;28;20026;-73
2024/02/01 04:59:13;;;;;;;5.28;3.60;;;;;;;-5.88;66.20;95769.75;5010774;28;20103;-74
2024/02/01 05:01:38;;;;;;;8.90;4.72;;;;;;;-5.87;66.43;95751.16;5025147;28;20018;-74
2024/02/01 05:04:04;;;;;;;9.23;4.32;;;;;;;-5.74;66.07;95776.41;4993349;28;20500;-74
2024/02/01 05:06:29;;;;;;;7.63;4.35;;;;;;;-5.75;65.07;95775.56;5029151;28;20029;-74
2024/02/01 05:08:55;;;;;;;8.07;4.20;;;;;;;-5.90;65.08;95746.13;5022154;28;20667;-75
2024/02/01 05:11:20;;;;;;;7.68;4.32;;;;;;;-5.88;65.14;95768.88;5023151;28;20675;-75
2024/02/01 05:13:47;;;;;;;6.95;4.40;;;;;;;-5.99;65.50;95756.31;5006192;28;20026;-75
2024/02/01 05:16:13;;;;;;;10.15;5.25;;;;;;;-6.05;65.81;95779.09;4993391;28;20543;-74
2024/02/01 05:18:40;;;;;;;8.75;4.72;;;;;;;-5.95;65.90;95769.78;4996255;28;20084;-74
2024/02/01 05:21:05;;;;;;;8.02;4.72;;;;;;;-5.96;66.24;95770.63;5031919;28;20041;-73
2024/02/01 05:23:31;;;;;;;5.35;4.25;;;;;;;-6.03;66.36;95763.91;5010969;28;20040;-73
2024/02/01 05:25:56;;;;;;;4.80;3.00;;;;;;;-5.94;66.60;95762.19;5029500;28;20021;-74
2024/02/01 05:28:22;;;;;;;6.68;4.18;;;;;;;-5.86;66.70;95757.06;5003457;28;20041;-74
2024/02/01 05:30:50;;;;;;;5.03;3.45;;;;;;;-5.86;66.28;95755.38;5013098;28;20025;-78
2024/02/01 05:33:16;;;;;;;6.18;3.60;;;;;;;-5.92;66.81;95762.16;4997939;28;20064;-72
2024/02/01 05:35:42;;;;;;;7.05;3.72;;;;;;;-5.97;66.71;95761.34;4987712;28;20443;-72
2024/02/01 05:38:08;;;;;;;6.90;4.55;;;;;;;-5.91;66.54;95756.22;5030865;28;20029;-72
2024/02/01 05:40:33;;;;;;;8.95;4.88;;;;;;;-5.84;66.44;95771.41;5010806;28;20025;-72
2024/02/01 05:42:58;;;;;;;6.65;4.32;;;;;;;-5.78;65.79;95762.09;5028573;28;20514;-72
2024/02/01 05:45:28;;;;;;;7.90;5.00;;;;;;;-5.77;65.94;95756.19;5028294;28;20025;-72
2024/02/01 05:47:54;;;;;;;8.10;5.43;;;;;;;-6.37;66.41;95728.59;5030777;28;20044;-73
2024/02/01 05:50:20;;;;;;;7.00;4.28;;;;;;;-5.93;66.89;95771.44;5008282;28;20033;-72
2024/02/01 05:52:45;;;;;;;10.07;5.30;;;;;;;-5.97;66.87;95758.81;4986293;28;20040;-72
2024/02/01 05:55:13;;;;;;;7.72;5.68;;;;;;;-5.91;66.65;95759.59;5006008;28;20503;-73
2024/02/01 05:57:38;;;;;;;11.30;5.70;;;;;;;-5.95;66.53;95752.91;5013225;28;20029;-73
2024/02/01 06:00:09;;;;;;;7.43;4.65;;;;;;;-5.95;66.75;95747.03;4996763;28;20454;-72
2024/02/01 06:02:35;;;;;;;;;;;;;;;-5.75;66.48;95759.56;4999432;28;20048;-77
2024/02/01 06:05:00;;;;;;;10.68;4.85;;;;;;;-5.90;66.93;95765.53;5014299;28;20011;-74
2024/02/01 06:07:26;;;;;;;8.52;4.63;;;;;;;-6.06;65.35;95731.88;5002135;28;20479;-75
2024/02/01 06:09:51;;;;;;;8.57;4.80;;;;;;;-5.80;65.37;95781.50;4995114;28;20416;-72
2024/02/01 06:12:17;;;;;;;7.93;4.55;;;;;;;-5.76;65.34;95780.66;5012533;28;20491;-72
2024/02/01 06:14:42;;;;;;;9.52;5.32;;;;;;;-5.91;65.89;95787.44;5014814;28;20092;-72
2024/02/01 06:17:08;;;;;;;11.27;6.07;;;;;;;-6.01;66.08;95758.00;5010421;28;20462;-78
2024/02/01 06:19:33;;;;;;;9.25;5.63;;;;;;;-5.77;66.91;95791.63;5020025;28;20065;-74
2024/02/01 06:21:59;;;;;;;10.25;5.70;;;;;;;-5.79;66.58;95790.78;5010984;28;20034;-78
2024/02/01 06:24:24;;;;;;;9.25;5.93;;;;;;;-6.31;67.18;95742.06;5019471;28;20037;-72
2024/02/01 06:26:50;;;;;;;7.97;5.35;;;;;;;-5.80;66.68;95795.00;4997242;28;20030;-69
2024/02/01 06:29:16;;;;;;;11.73;6.75;;;;;;;-5.77;66.53;95784.84;5014316;28;20086;-71
2024/02/01 06:31:41;;;;;;;9.30;6.22;;;;;;;-5.80;66.25;95768.84;5005827;28;20030;-72
2024/02/01 06:34:17;;;;;;;9.20;6.13;;;;;;;-5.66;66.76;95774.69;4998189;28;20033;-70
2024/02/01 06:36:50;;;;;;;8.80;5.68;;;;;;;-5.67;66.36;95765.41;4995529;28;20029;-71
2024/02/01 06:39:26;;;;;;;8.48;5.65;;;;;;;-5.64;66.88;95758.66;5010800;28;20044;-70
2024/02/01 06:42:13;;;;;;;15.02;9.48;;;;;;;-5.50;66.94;95771.25;4979492;28;20038;-69
2024/02/01 06:44:43;;;;;;;13.23;8.07;;;;;;;-5.64;65.76;95778.91;4997369;28;20025;-69
2024/02/01 06:47:11;;;;;;;12.55;7.70;;;;;;;-5.49;66.16;95767.88;4994473;28;20030;-69
2024/02/01 06:54:50;;;;;;;;;;;;;;;-5.43;65.66;95761.94;4999496;28;20041;-69
2024/02/01 06:57:22;;;;;;;9.90;6.78;;;;;;;-5.50;65.83;95761.09;4990717;28;20365;-70
2024/02/01 07:05:25;;;;;;;16.65;8.30;;;;;;;-5.56;67.15;95745.94;5000127;28;20095;-70
2024/02/01 07:07:51;;;;;;;16.45;9.02;;;;;;;-5.55;66.84;95732.44;5030862;28;20109;-70
2024/02/01 07:10:19;;;;;;;13.73;8.20;;;;;;;-5.37;66.70;95743.31;5030891;28;20128;-71
2024/02/01 07:13:06;;;;;;;14.20;8.02;;;;;;;-5.19;66.66;95753.31;4968136;28;20096;-70
2024/02/01 07:15:32;;;;;;;11.27;7.07;;;;;;;-5.08;66.06;95753.25;5001282;28;20033;-71
2024/02/01 07:18:14;;;;;;;8.95;5.60;;;;;;;-5.08;65.90;95738.03;4994107;28;20029;-71
2024/02/01 07:21:09;;;;;;;8.23;5.70;;;;;;;-5.03;66.27;95741.38;5015343;28;20033;-70
2024/02/01 07:23:34;;;;;;;13.68;7.13;;;;;;;-5.00;66.47;95734.59;5016814;28;20569;-70
2024/02/01 07:26:16;;;;;;;12.65;7.28;;;;;;;-4.92;66.51;95731.19;5014319;28;20037;-70
2024/02/01 07:58:49;;;;;;;16.25;10.23;;;;;;;6.99;36.61;95708.69;5030527;28;20534;-70
2024/02/01 08:01:18;;;;;;;21.55;12.82;;;;;;;7.70;34.64;95705.59;5018023;28;20512;-71
2024/02/01 08:04:01;;;;;;;18.60;11.60;;;;;;;8.18;33.21;95708.00;4983349;28;20033;-70
2024/02/01 08:09:14;;;;;;;14.63;11.25;;;;;;;8.93;31.96;95686.19;5014489;28;20172;-70
2024/02/01 08:11:43;;;;;;;16.10;11.63;;;;;;;7.88;33.97;95689.94;5025710;28;20496;-69
2024/02/01 08:14:13;;;;;;;18.67;11.88;;;;;;;7.08;35.12;95692.72;4983381;28;20037;-70
2024/02/01 08:16:39;;;;;;;22.10;13.07;;;;;;;6.75;36.46;95681.63;4989028;28;20259;-70
2024/02/01 08:19:06;;;;;;;17.50;12.90;;;;;;;6.11;37.41;95676.38;5030158;28;20560;-70
2024/02/01 08:21:35;;;;;;;19.75;12.57;;;;;;;5.47;38.80;95677.00;5008855;28;20030;-70
2024/02/01 08:24:01;;;;;;;21.88;14.85;;;;;;;4.73;40.38;95679.66;5014794;28;20034;-70
2024/02/01 08:26:27;;;;;;;20.58;14.48;;;;;;;3.58;42.63;95678.63;5010574;28;20045;-69
2024/02/01 08:28:52;;;;;;;20.52;13.15;;;;;;;2.88;45.01;95676.34;5008356;28;20022;-69
2024/02/01 08:31:18;;;;;;;20.02;13.80;;;;;;;1.94;47.00;95676.41;5015669;28;20080;-69
2024/02/01 08:33:44;;;;;;;24.75;14.85;;;;;;;1.76;48.55;95676.16;4996557;28;20087;-69
2024/02/01 08:36:17;;;;;;;19.80;12.93;;;;;;;1.55;49.89;95679.47;4972780;28;20101;-70
2024/02/01 08:38:43;;;;;;;15.23;11.50;;;;;;;1.54;50.71;95677.78;4974064;28;20030;-69
2024/02/01 08:41:08;;;;;;;19.25;12.38;;;;;;;0.71;52.67;95680.44;4969804;28;20045;-69
2024/02/01 08:43:38;;;;;;;19.92;13.10;;;;;;;0.58;53.16;95667.19;4989442;28;20504;-70
2024/02/01 08:46:03;;;;;;;18.58;12.52;;;;;;;0.56;54.11;95683.47;4991746;28;20038;-70
2024/02/01 08:48:30;;;;;;;19.42;13.57;;;;;;;0.38;54.70;95687.41;4975914;28;20101;-70
2024/02/01 08:50:55;;;;;;;23.48;13.95;;;;;;;0.31;54.96;95686.75;4984654;28;20575;-70
2024/02/01 08:53:22;;;;;;;21.52;13.52;;;;;;;-0.04;55.64;95642.56;4990145;28;20043;-69
2024/02/01 08:55:52;;;;;;;20.20;12.77;;;;;;;0.18;55.22;95687.97;4993365;28;20026;-71
2024/02/01 08:58:17;;;;;;;18.17;13.05;;;;;;;0.11;55.61;95684.75;4980114;28;20035;-70
2024/02/01 09:00:43;;;;;;;19.52;12.68;;;;;;;0.56;54.08;95689.41;4966652;28;20465;-70
2024/02/01 09:03:15;;;;;;;23.40;14.70;;;;;;;0.33;54.74;95679.84;4992880;28;20440;-70
2024/02/01 09:05:44;;;;;;;19.90;12.63;;;;;;;0.37;55.05;95683.19;4976711;28;20089;-71
2024/02/01 09:08:14;;;;;;;22.98;13.73;;;;;;;0.37;54.99;95673.78;4993373;28;20502;-71
2024/02/01 09:10:50;;;;;;;17.42;13.32;;;;;;;0.45;54.70;95663.34;4976638;28;20054;-70
2024/02/01 09:13:19;;;;;;;18.13;12.07;;;;;;;0.25;55.05;95652.84;4973772;28;20034;-70
2024/02/01 09:15:45;;;;;;;19.65;12.60;;;;;;;0.41;55.52;95667.69;4976861;28;20030;-69
2024/02/01 09:18:11;;;;;;;20.70;12.82;;;;;;;0.55;55.13;95659.59;4990684;28;20121;-69
2024/02/01 09:20:37;;;;;;;21.92;13.27;;;;;;;0.73;54.58;95639.47;4993340;28;20031;-69
2024/02/01 09:23:03;;;;;;;18.63;12.10;;;;;;;0.70;54.53;95644.66;4992666;28;20252;-69
2024/02/01 09:25:29;;;;;;;23.92;14.23;;;;;;;1.00;54.50;95642.88;4993140;28;20034;-69
2024/02/01 09:27:55;;;;;;;20.45;12.75;;;;;;;1.01;54.43;95642.00;4959988;28;20108;-70
2024/02/01 09:30:23;;;;;;;17.80;11.73;;;;;;;1.00;53.68;95642.88;4993951;28;20492;-69
2024/02/01 09:32:53;;;;;;;21.92;11.68;;;;;;;1.05;53.29;95630.75;4993011;28;20034;-70
2024/02/01 09:35:21;;;;;;;19.05;12.18;;;;;;;1.19;53.15;95614.97;4992987;28;20429;-70
2024/02/01 09:37:51;;;;;;;20.15;12.07;;;;;;;1.30;52.63;95621.38;4977029;28;20026;-69
2024/02/01 09:40:20;;;;;;;17.95;12.30;;;;;;;1.26;52.63;95614.72;4977322;28;20390;-69
2024/02/01 09:42:46;;;;;;;18.38;11.68;;;;;;;1.28;51.99;95625.75;4977146;28;20057;-70
2024/02/01 09:45:12;;;;;;;16.45;11.18;;;;;;;1.45;51.90;95627.72;4976603;28;20058;-69
2024/02/01 09:47:43;;;;;;;24.52;11.55;;;;;;;1.54;51.39;95627.41;4975353;28;20035;-70
2024/02/01 09:50:12;;;;;;;16.58;10.20;;;;;;;1.49;51.35;95613.91;4994101;28;20045;-69
2024/02/01 09:52:44;;;;;;;12.50;9.30;;;;;;;1.88;49.47;95618.53;4976758;28;20412;-69
2024/02/01 09:55:16;;;;;;;13.18;9.35;;;;;;;1.69;49.53;95610.66;4992760;28;20088;-69
2024/02/01 09:57:49;;;;;;;14.57;8.90;;;;;;;1.74;49.24;95598.53;4992578;28;20037;-69
2024/02/01 10:00:18;;;;;;;12.38;9.07;;;;;;;1.69;48.86;95600.41;4977404;28;20085;-70
2024/02/01 10:02:48;;;;;;;13.50;9.10;;;;;;;2.16;47.05;95586.75;4960904;28;20045;-69
2024/02/01 10:05:13;;;;;;;15.65;9.00;;;;;;;2.05;46.89;95594.84;4992340;28;20034;-69
2024/02/01 10:07:39;;;;;;;12.77;8.65;;;;;;;2.24;46.26;95583.00;4976207;28;20030;-69
2024/02/01 10:10:05;;;;;;;13.77;8.27;;;;;;;2.06;45.62;95582.84;4992343;28;20057;-69
2024/02/01 10:12:34;;;;;;;13.32;9.05;;;;;;;2.33;45.65;95588.69;4976259;28;20033;-70
2024/02/01 10:15:08;;;;;;;16.55;9.00;;;;;;;2.79;45.17;95584.34;4993321;28;20525;-70
2024/02/01 10:17:45;;;;;;;12.77;8.85;;;;;;;2.52;45.72;95571.69;4992267;28;20030;-69
2024/02/01 10:20:33;;;;;;;12.48;8.70;;;;;;;2.62;45.81;95577.31;4991684;28;20066;-70
2024/02/01 10:22:59;;;;;;;13.73;9.18;;;;;;;2.89;45.61;95570.22;4992280;28;20117;-69
2024/02/01 10:25:33;;;;;;;14.10;9.05;;;;;;;3.01;45.57;95559.47;4975729;28;20030;-69
2024/02/01 10:28:04;;;;;;;17.10;9.90;;;;;;;3.32;45.66;95555.59;4992224;28;20125;-70
2024/02/01 10:30:31;;;;;;;15.15;9.73;;;;;;;3.52;44.83;95541.91;4993278;28;20034;-69
2024/02/01 10:33:00;;;;;;;11.57;8.90;;;;;;;3.19;45.67;95536.47;4991960;28;20097;-69
2024/02/01 10:35:26;;;;;;;16.20;9.75;;;;;;;3.29;45.71;95537.75;4991946;28;20062;-70
2024/02/01 10:37:52;;;;;;;14.82;10.40;;;;;;;3.58;45.16;95529.63;4991854;28;20030;-69
2024/02/01 10:40:17;;;;;;;19.45;10.68;;;;;;;3.61;44.86;95525.25;4975572;28;20496;-69
2024/02/01 10:42:45;;;;;;;15.38;9.98;;;;;;;3.73;44.51;95506.69;4975519;28;20026;-69
2024/02/01 10:45:11;;;;;;;15.85;9.90;;;;;;;4.21;43.13;95503.63;4991773;28;20038;-69
2024/02/01 10:47:43;;;;;;;18.92;10.60;;;;;;;4.45;43.30;95505.94;4991439;28;20038;-69
2024/02/01 10:50:09;;;;;;;15.02;10.40;;;;;;;4.63;42.04;95499.09;4975427;28;20132;-69
2024/02/01 10:52:35;;;;;;;19.60;11.10;;;;;;;4.77;41.25;95485.56;4970583;28;20074;-69
2024/02/01 10:55:01;;;;;;;14.15;9.98;;;;;;;4.72;41.39;95493.47;4982422;28;20110;-69
2024/02/01 10:57:26;;;;;;;16.42;10.80;;;;;;;4.70;40.20;95448.97;4969676;28;20038;-69
2024/02/01 10:59:52;;;;;;;17.50;11.27;;;;;;;5.03;37.93;95473.94;4975103;28;20034;-68
2024/02/01 11:02:19;;;;;;;17.98;11.25;;;;;;;4.98;37.30;95473.34;4974949;28;20049;-69
2024/02/01 11:04:48;;;;;;;22.17;11.90;;;;;;;5.03;38.13;95468.78;4991209;28;20096;-68
2024/02/01 11:07:21;;;;;;;17.38;11.10;;;;;;;5.13;38.17;95462.28;4974791;28;20113;-69
2024/02/01 11:09:48;;;;;;;20.85;12.25;;;;;;;5.28;38.02;95456.31;4974770;28;20217;-69
2024/02/01 11:12:13;;;;;;;17.27;10.82;;;;;;;4.84;38.66;95461.97;4989900;28;20034;-69
2024/02/01 11:14:39;;;;;;;17.58;11.50;;;;;;;4.65;38.68;95453.50;4991455;28;20037;-70
2024/02/01 11:17:09;;;;;;;18.38;12.30;;;;;;;5.02;37.64;95456.84;4989423;28;20057;-69
2024/02/01 11:19:35;;;;;;;18.27;12.48;;;;;;;5.29;35.95;95445.13;4989138;28;20037;-68
2024/02/01 11:22:03;;;;;;;17.08;12.20;;;;;;;5.47;36.15;95455.38;4971217;28;20031;-70
2024/02/01 11:24:29;;;;;;;15.48;10.90;;;;;;;5.47;36.50;95443.31;4983863;28;20026;-69
2024/02/01 11:26:59;;;;;;;20.20;11.85;;;;;;;5.20;36.21;95442.16;4986108;28;20125;-69
2024/02/01 11:29:33;;;;;;;16.77;11.73;;;;;;;5.20;36.63;95435.28;4954689;28;20413;-69
2024/02/01 11:32:03;;;;;;;17.10;11.77;;;;;;;5.57;35.39;95435.91;4955330;28;20085;-69
2024/02/01 11:34:28;;;;;;;16.33;11.13;;;;;;;5.55;35.82;95424.88;4971021;28;20129;-69
2024/02/01 11:36:54;;;;;;;18.73;11.73;;;;;;;5.33;35.91;95430.31;4971358;28;20173;-69
2024/02/01 11:39:20;;;;;;;13.95;10.07;;;;;;;5.64;35.15;95426.94;4969607;28;20140;-69
2024/02/01 11:41:48;;;;;;;19.00;10.65;;;;;;;5.77;34.18;95422.81;4954934;28;20089;-69
2024/02/01 11:44:16;;;;;;;13.07;10.10;;;;;;;5.87;33.71;95407.66;4972447;28;20030;-69
2024/02/01 11:46:48;;;;;;;13.63;9.60;;;;;;;6.08;33.82;95415.16;4971226;28;20038;-69
2024/02/01 11:49:25;;;;;;;15.60;10.50;;;;;;;6.04;34.48;95399.88;4971272;28;20063;-69
2024/02/01 11:51:56;;;;;;;18.88;11.35;;;;;;;6.41;33.62;95402.13;4970935;28;20109;-70
2024/02/01 11:54:27;;;;;;;14.57;11.05;;;;;;;6.25;34.71;95405.56;4971095;28;20094;-69
2024/02/01 11:56:54;;;;;;;14.07;10.25;;;;;;;6.50;34.72;95388.69;4940306;28;20406;-69
2024/02/01 11:59:19;;;;;;;18.73;11.20;;;;;;;6.46;34.46;95394.91;4972290;28;20027;-69
2024/02/01 12:01:45;;;;;;;15.55;11.70;;;;;;;6.37;34.20;95390.28;4970970;28;20050;-69
2024/02/01 12:04:10;;;;;;;18.27;11.30;;;;;;;6.20;33.31;95380.94;4954874;28;20379;-69
2024/02/01 12:06:36;;;;;;;16.25;11.73;;;;;;;6.60;33.60;95389.81;4971021;28;20073;-69
2024/02/01 12:09:02;;;;;;;17.20;10.75;;;;;;;6.48;33.51;95382.75;4970857;28;20035;-69
2024/02/01 12:11:34;;;;;;;32.80;22.38;;;;;;;5.99;34.58;95368.34;4972059;28;20039;-70
2024/02/01 12:14:11;;;;;;;17.15;12.25;;;;;;;6.24;34.14;95377.25;4955555;28;20396;-69